sensor_id;sensor_type;location;lat;lon;timestamp;temperature;humidity
48998;DHT22;34807;51.456;7.244;2023-04-28T00:00:24;11.10;79.30
48998;DHT22;34807;51.456;7.244;2023-04-28T00:02:49;11.10;79.30
48998;DHT22;34807;51.456;7.244;2023-04-28T00:05:15;11.10;79.30
48998;DHT22;34807;51.456;7.244;2023-04-28T00:07:40;11.10;79.30
48998;DHT22;34807;51.456;7.244;2023-04-28T00:10:06;11.00;79.30
48998;DHT22;34807;51.456;7.244;2023-04-28T00:12:32;11.10;79.40
48998;DHT22;34807;51.456;7.244;2023-04-28T00:14:57;11.00;79.40
48998;DHT22;34807;51.456;7.244;2023-04-28T00:17:23;11.00;79.50
48998;DHT22;34807;51.456;7.244;2023-04-28T00:19:48;11.00;79.40
48998;DHT22;34807;51.456;7.244;2023-04-28T00:22:14;11.00;79.50
48998;DHT22;34807;51.456;7.244;2023-04-28T00:24:40;11.00;79.50
48998;DHT22;34807;51.456;7.244;2023-04-28T00:27:06;10.90;79.50
48998;DHT22;34807;51.456;7.244;2023-04-28T00:29:31;11.00;79.60
48998;DHT22;34807;51.456;7.244;2023-04-28T00:31:57;10.90;79.60
48998;DHT22;34807;51.456;7.244;2023-04-28T00:34:22;10.90;79.60
48998;DHT22;34807;51.456;7.244;2023-04-28T00:36:48;10.90;79.70
48998;DHT22;34807;51.456;7.244;2023-04-28T00:39:14;10.90;79.80
48998;DHT22;34807;51.456;7.244;2023-04-28T00:41:40;10.90;79.80
48998;DHT22;34807;51.456;7.244;2023-04-28T00:44:05;10.90;79.80
48998;DHT22;34807;51.456;7.244;2023-04-28T00:46:32;10.90;79.90
48998;DHT22;34807;51.456;7.244;2023-04-28T00:48:58;10.80;79.90
48998;DHT22;34807;51.456;7.244;2023-04-28T00:51:23;10.90;80.00
48998;DHT22;34807;51.456;7.244;2023-04-28T00:53:49;10.80;80.00
48998;DHT22;34807;51.456;7.244;2023-04-28T00:56:15;10.80;80.10
48998;DHT22;34807;51.456;7.244;2023-04-28T00:58:40;10.80;80.20
48998;DHT22;34807;51.456;7.244;2023-04-28T01:01:07;10.80;80.30
48998;DHT22;34807;51.456;7.244;2023-04-28T01:03:33;10.80;80.20
48998;DHT22;34807;51.456;7.244;2023-04-28T01:05:59;10.80;80.40
48998;DHT22;34807;51.456;7.244;2023-04-28T01:08:32;10.80;80.40
48998;DHT22;34807;51.456;7.244;2023-04-28T01:10:57;10.70;80.50
48998;DHT22;34807;51.456;7.244;2023-04-28T01:13:23;10.70;80.60
48998;DHT22;34807;51.456;7.244;2023-04-28T01:15:49;10.70;80.70
48998;DHT22;34807;51.456;7.244;2023-04-28T01:18:15;10.70;80.70
48998;DHT22;34807;51.456;7.244;2023-04-28T01:20:40;10.70;80.70
48998;DHT22;34807;51.456;7.244;2023-04-28T01:23:12;10.70;80.90
48998;DHT22;34807;51.456;7.244;2023-04-28T01:25:38;10.70;81.00
48998;DHT22;34807;51.456;7.244;2023-04-28T01:28:04;10.70;81.10
48998;DHT22;34807;51.456;7.244;2023-04-28T01:30:29;10.70;81.10
48998;DHT22;34807;51.456;7.244;2023-04-28T01:32:55;10.70;81.20
48998;DHT22;34807;51.456;7.244;2023-04-28T01:35:20;10.70;81.30
48998;DHT22;34807;51.456;7.244;2023-04-28T01:37:46;10.60;81.10
48998;DHT22;34807;51.456;7.244;2023-04-28T01:40:11;10.60;81.40
48998;DHT22;34807;51.456;7.244;2023-04-28T01:42:37;10.60;81.40
48998;DHT22;34807;51.456;7.244;2023-04-28T01:45:02;10.60;81.60
48998;DHT22;34807;51.456;7.244;2023-04-28T01:47:29;10.60;81.60
48998;DHT22;34807;51.456;7.244;2023-04-28T01:49:55;10.60;81.60
48998;DHT22;34807;51.456;7.244;2023-04-28T01:52:21;10.50;81.80
48998;DHT22;34807;51.456;7.244;2023-04-28T01:57:32;10.60;82.00
48998;DHT22;34807;51.456;7.244;2023-04-28T02:00:00;10.50;82.10
48998;DHT22;34807;51.456;7.244;2023-04-28T02:02:26;10.50;82.10
48998;DHT22;34807;51.456;7.244;2023-04-28T02:04:51;10.50;82.30
48998;DHT22;34807;51.456;7.244;2023-04-28T02:07:17;10.50;82.40
48998;DHT22;34807;51.456;7.244;2023-04-28T02:09:42;10.50;82.50
48998;DHT22;34807;51.456;7.244;2023-04-28T02:12:08;10.50;82.50
48998;DHT22;34807;51.456;7.244;2023-04-28T02:14:33;10.50;82.70
48998;DHT22;34807;51.456;7.244;2023-04-28T02:16:59;10.50;82.70
48998;DHT22;34807;51.456;7.244;2023-04-28T02:19:24;10.50;82.70
48998;DHT22;34807;51.456;7.244;2023-04-28T02:21:50;10.50;82.80
48998;DHT22;34807;51.456;7.244;2023-04-28T02:24:16;10.40;82.90
48998;DHT22;34807;51.456;7.244;2023-04-28T02:26:41;10.40;82.90
48998;DHT22;34807;51.456;7.244;2023-04-28T02:29:07;10.40;83.00
48998;DHT22;34807;51.456;7.244;2023-04-28T02:31:32;10.40;83.20
48998;DHT22;34807;51.456;7.244;2023-04-28T02:33:58;10.40;83.30
48998;DHT22;34807;51.456;7.244;2023-04-28T02:36:23;10.40;83.40
48998;DHT22;34807;51.456;7.244;2023-04-28T02:38:49;10.40;83.50
48998;DHT22;34807;51.456;7.244;2023-04-28T02:41:14;10.40;83.60
48998;DHT22;34807;51.456;7.244;2023-04-28T02:43:40;10.40;83.60
48998;DHT22;34807;51.456;7.244;2023-04-28T02:46:06;10.40;83.50
48998;DHT22;34807;51.456;7.244;2023-04-28T02:48:32;10.40;83.60
48998;DHT22;34807;51.456;7.244;2023-04-28T02:51:00;10.40;83.60
48998;DHT22;34807;51.456;7.244;2023-04-28T02:53:25;10.40;83.90
48998;DHT22;34807;51.456;7.244;2023-04-28T02:55:51;10.30;84.00
48998;DHT22;34807;51.456;7.244;2023-04-28T02:58:17;10.40;84.10
48998;DHT22;34807;51.456;7.244;2023-04-28T03:00:42;10.30;84.10
48998;DHT22;34807;51.456;7.244;2023-04-28T03:03:08;10.30;84.10
48998;DHT22;34807;51.456;7.244;2023-04-28T03:05:33;10.30;84.30
48998;DHT22;34807;51.456;7.244;2023-04-28T03:07:59;10.30;84.30
48998;DHT22;34807;51.456;7.244;2023-04-28T03:10:24;10.30;84.40
48998;DHT22;34807;51.456;7.244;2023-04-28T03:12:50;10.30;84.60
48998;DHT22;34807;51.456;7.244;2023-04-28T03:15:16;10.30;84.60
48998;DHT22;34807;51.456;7.244;2023-04-28T03:17:41;10.30;85.10
48998;DHT22;34807;51.456;7.244;2023-04-28T03:20:07;10.30;84.80
48998;DHT22;34807;51.456;7.244;2023-04-28T03:22:33;10.30;84.70
48998;DHT22;34807;51.456;7.244;2023-04-28T03:24:59;10.30;84.90
48998;DHT22;34807;51.456;7.244;2023-04-28T03:27:25;10.30;84.90
48998;DHT22;34807;51.456;7.244;2023-04-28T03:29:50;10.30;85.20
48998;DHT22;34807;51.456;7.244;2023-04-28T03:32:16;10.30;85.40
48998;DHT22;34807;51.456;7.244;2023-04-28T03:34:42;10.20;85.20
48998;DHT22;34807;51.456;7.244;2023-04-28T03:37:07;10.30;85.20
48998;DHT22;34807;51.456;7.244;2023-04-28T03:39:33;10.20;85.40
48998;DHT22;34807;51.456;7.244;2023-04-28T03:41:58;10.30;85.10
48998;DHT22;34807;51.456;7.244;2023-04-28T03:44:24;10.20;85.20
48998;DHT22;34807;51.456;7.244;2023-04-28T03:46:49;10.20;85.30
48998;DHT22;34807;51.456;7.244;2023-04-28T03:49:15;10.20;85.50
48998;DHT22;34807;51.456;7.244;2023-04-28T03:51:40;10.30;85.60
48998;DHT22;34807;51.456;7.244;2023-04-28T03:54:06;10.20;85.80
48998;DHT22;34807;51.456;7.244;2023-04-28T03:56:32;10.20;85.80
48998;DHT22;34807;51.456;7.244;2023-04-28T03:58:58;10.20;85.90
48998;DHT22;34807;51.456;7.244;2023-04-28T04:01:23;10.20;85.90
48998;DHT22;34807;51.456;7.244;2023-04-28T04:03:49;10.20;85.70
48998;DHT22;34807;51.456;7.244;2023-04-28T04:06:14;10.20;85.50
48998;DHT22;34807;51.456;7.244;2023-04-28T04:08:40;10.20;85.70
48998;DHT22;34807;51.456;7.244;2023-04-28T04:11:06;10.20;85.70
48998;DHT22;34807;51.456;7.244;2023-04-28T04:13:31;10.20;86.00
48998;DHT22;34807;51.456;7.244;2023-04-28T04:15:57;10.20;86.00
48998;DHT22;34807;51.456;7.244;2023-04-28T04:18:22;10.20;86.20
48998;DHT22;34807;51.456;7.244;2023-04-28T04:20:48;10.20;86.00
48998;DHT22;34807;51.456;7.244;2023-04-28T04:23:14;10.20;86.20
48998;DHT22;34807;51.456;7.244;2023-04-28T04:25:40;10.20;86.10
48998;DHT22;34807;51.456;7.244;2023-04-28T04:28:06;10.20;86.00
48998;DHT22;34807;51.456;7.244;2023-04-28T04:30:31;10.20;86.20
48998;DHT22;34807;51.456;7.244;2023-04-28T04:32:57;10.20;86.90
48998;DHT22;34807;51.456;7.244;2023-04-28T04:35:23;10.20;86.30
48998;DHT22;34807;51.456;7.244;2023-04-28T04:37:48;10.20;86.20
48998;DHT22;34807;51.456;7.244;2023-04-28T04:40:14;10.20;86.40
48998;DHT22;34807;51.456;7.244;2023-04-28T04:42:39;10.20;86.00
48998;DHT22;34807;51.456;7.244;2023-04-28T04:45:05;10.20;86.20
48998;DHT22;34807;51.456;7.244;2023-04-28T04:47:31;10.20;86.30
48998;DHT22;34807;51.456;7.244;2023-04-28T04:49:56;10.20;86.40
48998;DHT22;34807;51.456;7.244;2023-04-28T04:52:22;10.20;86.20
48998;DHT22;34807;51.456;7.244;2023-04-28T04:54:48;10.20;86.60
48998;DHT22;34807;51.456;7.244;2023-04-28T04:57:13;10.20;86.50
48998;DHT22;34807;51.456;7.244;2023-04-28T04:59:39;10.20;86.50
48998;DHT22;34807;51.456;7.244;2023-04-28T05:02:04;10.20;86.90
48998;DHT22;34807;51.456;7.244;2023-04-28T05:04:30;10.20;86.50
48998;DHT22;34807;51.456;7.244;2023-04-28T05:06:55;10.20;86.40
48998;DHT22;34807;51.456;7.244;2023-04-28T05:09:21;10.20;86.60
48998;DHT22;34807;51.456;7.244;2023-04-28T05:11:47;10.20;86.60
48998;DHT22;34807;51.456;7.244;2023-04-28T05:14:13;10.20;86.70
48998;DHT22;34807;51.456;7.244;2023-04-28T05:16:39;10.20;86.60
48998;DHT22;34807;51.456;7.244;2023-04-28T05:19:05;10.20;86.60
48998;DHT22;34807;51.456;7.244;2023-04-28T05:21:31;10.20;86.60
48998;DHT22;34807;51.456;7.244;2023-04-28T05:23:56;10.20;86.60
48998;DHT22;34807;51.456;7.244;2023-04-28T05:26:22;10.20;86.70
48998;DHT22;34807;51.456;7.244;2023-04-28T05:28:48;10.20;86.70
48998;DHT22;34807;51.456;7.244;2023-04-28T05:31:13;10.20;87.00
48998;DHT22;34807;51.456;7.244;2023-04-28T05:33:39;10.20;87.10
48998;DHT22;34807;51.456;7.244;2023-04-28T05:36:04;10.20;87.50
48998;DHT22;34807;51.456;7.244;2023-04-28T05:38:30;10.30;87.70
48998;DHT22;34807;51.456;7.244;2023-04-28T05:40:57;10.20;87.40
48998;DHT22;34807;51.456;7.244;2023-04-28T05:43:22;10.30;87.90
48998;DHT22;34807;51.456;7.244;2023-04-28T05:45:48;10.30;88.00
48998;DHT22;34807;51.456;7.244;2023-04-28T05:48:13;10.30;87.60
48998;DHT22;34807;51.456;7.244;2023-04-28T05:50:39;10.30;88.10
48998;DHT22;34807;51.456;7.244;2023-04-28T05:53:04;10.30;87.90
48998;DHT22;34807;51.456;7.244;2023-04-28T05:55:31;10.30;87.90
48998;DHT22;34807;51.456;7.244;2023-04-28T05:57:58;10.30;88.10
48998;DHT22;34807;51.456;7.244;2023-04-28T06:00:24;10.30;87.90
48998;DHT22;34807;51.456;7.244;2023-04-28T06:02:49;10.30;87.60
48998;DHT22;34807;51.456;7.244;2023-04-28T06:05:15;10.40;87.70
48998;DHT22;34807;51.456;7.244;2023-04-28T06:07:40;10.40;88.20
48998;DHT22;34807;51.456;7.244;2023-04-28T06:10:06;10.40;88.00
48998;DHT22;34807;51.456;7.244;2023-04-28T06:12:32;10.40;87.70
48998;DHT22;34807;51.456;7.244;2023-04-28T06:14:57;10.40;87.70
48998;DHT22;34807;51.456;7.244;2023-04-28T06:17:23;10.40;88.00
48998;DHT22;34807;51.456;7.244;2023-04-28T06:19:48;10.40;88.00
48998;DHT22;34807;51.456;7.244;2023-04-28T06:22:15;10.40;88.00
48998;DHT22;34807;51.456;7.244;2023-04-28T06:24:41;10.40;88.00
48998;DHT22;34807;51.456;7.244;2023-04-28T06:27:07;10.40;88.40
48998;DHT22;34807;51.456;7.244;2023-04-28T06:29:32;10.40;88.30
48998;DHT22;34807;51.456;7.244;2023-04-28T06:31:58;10.40;88.40
48998;DHT22;34807;51.456;7.244;2023-04-28T06:34:24;10.40;88.20
48998;DHT22;34807;51.456;7.244;2023-04-28T06:36:51;10.40;88.50
48998;DHT22;34807;51.456;7.244;2023-04-28T06:39:17;10.40;88.20
48998;DHT22;34807;51.456;7.244;2023-04-28T06:41:42;10.50;88.40
48998;DHT22;34807;51.456;7.244;2023-04-28T06:44:08;10.50;88.60
48998;DHT22;34807;51.456;7.244;2023-04-28T06:46:35;10.50;88.40
48998;DHT22;34807;51.456;7.244;2023-04-28T06:49:01;10.50;88.20
48998;DHT22;34807;51.456;7.244;2023-04-28T06:51:27;10.50;88.70
48998;DHT22;34807;51.456;7.244;2023-04-28T06:53:53;10.60;88.30
48998;DHT22;34807;51.456;7.244;2023-04-28T06:56:18;10.60;88.10
48998;DHT22;34807;51.456;7.244;2023-04-28T06:58:44;10.70;88.40
48998;DHT22;34807;51.456;7.244;2023-04-28T07:01:09;10.70;88.30
48998;DHT22;34807;51.456;7.244;2023-04-28T07:03:35;10.80;88.30
48998;DHT22;34807;51.456;7.244;2023-04-28T07:06:00;10.80;88.10
48998;DHT22;34807;51.456;7.244;2023-04-28T07:08:27;10.90;87.90
48998;DHT22;34807;51.456;7.244;2023-04-28T07:10:54;10.90;87.70
48998;DHT22;34807;51.456;7.244;2023-04-28T07:13:20;10.90;87.50
48998;DHT22;34807;51.456;7.244;2023-04-28T07:15:46;10.90;87.60
48998;DHT22;34807;51.456;7.244;2023-04-28T07:18:11;11.00;87.30
48998;DHT22;34807;51.456;7.244;2023-04-28T07:20:37;11.00;87.40
48998;DHT22;34807;51.456;7.244;2023-04-28T07:23:02;11.10;87.20
48998;DHT22;34807;51.456;7.244;2023-04-28T07:25:28;11.20;87.40
48998;DHT22;34807;51.456;7.244;2023-04-28T07:27:53;11.20;86.90
48998;DHT22;34807;51.456;7.244;2023-04-28T07:30:19;11.30;87.00
48998;DHT22;34807;51.456;7.244;2023-04-28T07:32:45;11.20;86.80
48998;DHT22;34807;51.456;7.244;2023-04-28T07:35:10;11.30;86.90
48998;DHT22;34807;51.456;7.244;2023-04-28T07:37:36;11.30;87.10
48998;DHT22;34807;51.456;7.244;2023-04-28T07:40:01;11.30;87.10
48998;DHT22;34807;51.456;7.244;2023-04-28T07:42:27;11.40;87.20
48998;DHT22;34807;51.456;7.244;2023-04-28T07:44:52;11.40;87.20
48998;DHT22;34807;51.456;7.244;2023-04-28T07:47:18;11.40;87.40
48998;DHT22;34807;51.456;7.244;2023-04-28T07:49:44;11.50;87.20
48998;DHT22;34807;51.456;7.244;2023-04-28T07:52:09;11.50;87.50
48998;DHT22;34807;51.456;7.244;2023-04-28T07:54:35;11.50;87.60
48998;DHT22;34807;51.456;7.244;2023-04-28T07:57:01;11.60;87.50
48998;DHT22;34807;51.456;7.244;2023-04-28T07:59:31;11.70;87.70
48998;DHT22;34807;51.456;7.244;2023-04-28T08:01:56;11.80;87.30
48998;DHT22;34807;51.456;7.244;2023-04-28T08:04:22;11.80;86.90
48998;DHT22;34807;51.456;7.244;2023-04-28T08:06:47;11.90;87.50
48998;DHT22;34807;51.456;7.244;2023-04-28T08:09:13;11.90;87.20
48998;DHT22;34807;51.456;7.244;2023-04-28T08:11:38;12.00;87.20
48998;DHT22;34807;51.456;7.244;2023-04-28T08:14:04;12.00;87.60
48998;DHT22;34807;51.456;7.244;2023-04-28T08:16:30;12.10;86.80
48998;DHT22;34807;51.456;7.244;2023-04-28T08:18:56;12.10;87.30
48998;DHT22;34807;51.456;7.244;2023-04-28T08:21:21;12.10;86.80
48998;DHT22;34807;51.456;7.244;2023-04-28T08:23:47;12.20;86.80
48998;DHT22;34807;51.456;7.244;2023-04-28T08:26:12;12.20;86.60
48998;DHT22;34807;51.456;7.244;2023-04-28T08:28:38;12.30;86.70
48998;DHT22;34807;51.456;7.244;2023-04-28T08:31:04;12.30;86.60
48998;DHT22;34807;51.456;7.244;2023-04-28T08:33:30;12.40;86.50
48998;DHT22;34807;51.456;7.244;2023-04-28T08:35:56;12.40;86.70
48998;DHT22;34807;51.456;7.244;2023-04-28T08:38:21;12.50;86.50
48998;DHT22;34807;51.456;7.244;2023-04-28T08:40:49;12.60;87.20
48998;DHT22;34807;51.456;7.244;2023-04-28T08:43:14;12.60;86.20
48998;DHT22;34807;51.456;7.244;2023-04-28T08:45:41;12.70;86.30
48998;DHT22;34807;51.456;7.244;2023-04-28T08:48:20;12.70;86.60
48998;DHT22;34807;51.456;7.244;2023-04-28T08:50:50;12.80;86.00
48998;DHT22;34807;51.456;7.244;2023-04-28T08:53:20;12.90;86.20
48998;DHT22;34807;51.456;7.244;2023-04-28T08:55:46;12.90;85.70
48998;DHT22;34807;51.456;7.244;2023-04-28T08:58:14;13.00;85.80
48998;DHT22;34807;51.456;7.244;2023-04-28T09:00:39;13.00;86.10
48998;DHT22;34807;51.456;7.244;2023-04-28T09:03:05;13.10;86.30
48998;DHT22;34807;51.456;7.244;2023-04-28T09:05:30;13.10;86.40
48998;DHT22;34807;51.456;7.244;2023-04-28T09:07:56;13.20;86.40
48998;DHT22;34807;51.456;7.244;2023-04-28T09:10:22;13.20;86.20
48998;DHT22;34807;51.456;7.244;2023-04-28T09:12:50;13.30;85.60
48998;DHT22;34807;51.456;7.244;2023-04-28T09:17:50;13.40;86.00
48998;DHT22;34807;51.456;7.244;2023-04-28T09:20:35;13.40;86.10
48998;DHT22;34807;51.456;7.244;2023-04-28T09:23:18;13.50;85.90
48998;DHT22;34807;51.456;7.244;2023-04-28T09:28:25;13.50;86.20
48998;DHT22;34807;51.456;7.244;2023-04-28T09:30:51;13.50;86.00
48998;DHT22;34807;51.456;7.244;2023-04-28T09:33:16;13.50;85.70
48998;DHT22;34807;51.456;7.244;2023-04-28T09:35:42;13.50;86.00
48998;DHT22;34807;51.456;7.244;2023-04-28T09:38:09;13.60;85.80
48998;DHT22;34807;51.456;7.244;2023-04-28T09:43:32;13.60;86.50
48998;DHT22;34807;51.456;7.244;2023-04-28T09:45:58;13.60;86.60
48998;DHT22;34807;51.456;7.244;2023-04-28T09:50:59;13.70;85.80
48998;DHT22;34807;51.456;7.244;2023-04-28T09:53:25;13.70;86.00
48998;DHT22;34807;51.456;7.244;2023-04-28T09:55:51;13.80;87.20
48998;DHT22;34807;51.456;7.244;2023-04-28T09:58:20;13.80;86.40
48998;DHT22;34807;51.456;7.244;2023-04-28T10:00:48;13.80;85.80
48998;DHT22;34807;51.456;7.244;2023-04-28T10:03:15;13.80;86.50
48998;DHT22;34807;51.456;7.244;2023-04-28T10:05:42;13.80;86.00
48998;DHT22;34807;51.456;7.244;2023-04-28T10:08:08;13.80;86.00
48998;DHT22;34807;51.456;7.244;2023-04-28T10:10:34;13.90;85.80
48998;DHT22;34807;51.456;7.244;2023-04-28T10:12:59;13.90;86.90
48998;DHT22;34807;51.456;7.244;2023-04-28T10:15:27;14.00;86.00
48998;DHT22;34807;51.456;7.244;2023-04-28T10:17:52;14.00;86.10
48998;DHT22;34807;51.456;7.244;2023-04-28T10:20:18;14.10;86.10
48998;DHT22;34807;51.456;7.244;2023-04-28T10:27:43;14.20;86.30
48998;DHT22;34807;51.456;7.244;2023-04-28T10:30:10;14.20;85.60
48998;DHT22;34807;51.456;7.244;2023-04-28T10:32:36;14.30;86.30
48998;DHT22;34807;51.456;7.244;2023-04-28T10:35:39;14.30;86.50
48998;DHT22;34807;51.456;7.244;2023-04-28T10:40:36;14.40;86.30
48998;DHT22;34807;51.456;7.244;2023-04-28T10:43:03;14.50;85.80
48998;DHT22;34807;51.456;7.244;2023-04-28T10:48:12;14.50;85.90
48998;DHT22;34807;51.456;7.244;2023-04-28T10:50:56;14.60;87.30
48998;DHT22;34807;51.456;7.244;2023-04-28T10:56:13;14.60;86.70
48998;DHT22;34807;51.456;7.244;2023-04-28T10:58:44;14.60;87.10
48998;DHT22;34807;51.456;7.244;2023-04-28T11:08:43;14.50;87.80
48998;DHT22;34807;51.456;7.244;2023-04-28T11:13:34;14.50;87.60
48998;DHT22;34807;51.456;7.244;2023-04-28T11:16:03;14.50;87.80
48998;DHT22;34807;51.456;7.244;2023-04-28T11:21:19;14.40;88.30
48998;DHT22;34807;51.456;7.244;2023-04-28T11:23:45;14.40;88.50
48998;DHT22;34807;51.456;7.244;2023-04-28T11:26:11;14.40;88.90
48998;DHT22;34807;51.456;7.244;2023-04-28T11:28:58;14.30;89.20
48998;DHT22;34807;51.456;7.244;2023-04-28T11:31:23;14.30;89.20
48998;DHT22;34807;51.456;7.244;2023-04-28T11:36:44;14.30;89.70
48998;DHT22;34807;51.456;7.244;2023-04-28T11:39:10;14.30;89.70
48998;DHT22;34807;51.456;7.244;2023-04-28T11:41:36;14.30;89.60
48998;DHT22;34807;51.456;7.244;2023-04-28T11:44:17;14.30;89.30
48998;DHT22;34807;51.456;7.244;2023-04-28T11:46:47;14.30;89.50
48998;DHT22;34807;51.456;7.244;2023-04-28T11:49:19;14.30;90.00
48998;DHT22;34807;51.456;7.244;2023-04-28T12:00:36;14.30;89.80
48998;DHT22;34807;51.456;7.244;2023-04-28T12:03:07;14.30;89.60
48998;DHT22;34807;51.456;7.244;2023-04-28T12:05:33;14.30;89.40
48998;DHT22;34807;51.456;7.244;2023-04-28T12:08:00;14.20;89.70
48998;DHT22;34807;51.456;7.244;2023-04-28T12:10:26;14.30;90.00
48998;DHT22;34807;51.456;7.244;2023-04-28T12:12:51;14.30;90.00
48998;DHT22;34807;51.456;7.244;2023-04-28T12:15:17;14.30;90.00
48998;DHT22;34807;51.456;7.244;2023-04-28T12:17:42;14.30;90.20
48998;DHT22;34807;51.456;7.244;2023-04-28T12:20:09;14.40;90.00
48998;DHT22;34807;51.456;7.244;2023-04-28T12:22:48;14.30;89.70
48998;DHT22;34807;51.456;7.244;2023-04-28T12:25:15;14.40;89.70
48998;DHT22;34807;51.456;7.244;2023-04-28T12:27:57;14.50;89.40
48998;DHT22;34807;51.456;7.244;2023-04-28T12:30:23;14.50;89.80
48998;DHT22;34807;51.456;7.244;2023-04-28T12:32:49;14.50;89.50
48998;DHT22;34807;51.456;7.244;2023-04-28T12:35:15;14.50;89.20
48998;DHT22;34807;51.456;7.244;2023-04-28T12:37:43;14.60;89.10
48998;DHT22;34807;51.456;7.244;2023-04-28T12:40:08;14.60;89.60
48998;DHT22;34807;51.456;7.244;2023-04-28T12:42:35;14.60;89.50
48998;DHT22;34807;51.456;7.244;2023-04-28T12:45:00;14.60;90.00
48998;DHT22;34807;51.456;7.244;2023-04-28T12:47:26;14.60;89.90
48998;DHT22;34807;51.456;7.244;2023-04-28T12:49:52;14.60;90.10
48998;DHT22;34807;51.456;7.244;2023-04-28T12:52:20;14.60;90.10
48998;DHT22;34807;51.456;7.244;2023-04-28T12:54:46;14.70;90.00
48998;DHT22;34807;51.456;7.244;2023-04-28T12:57:12;14.70;90.40
48998;DHT22;34807;51.456;7.244;2023-04-28T12:59:38;14.70;90.00
48998;DHT22;34807;51.456;7.244;2023-04-28T13:02:04;14.70;90.20
48998;DHT22;34807;51.456;7.244;2023-04-28T13:04:29;14.80;90.00
48998;DHT22;34807;51.456;7.244;2023-04-28T13:06:56;14.80;90.00
48998;DHT22;34807;51.456;7.244;2023-04-28T13:09:23;14.90;90.20
48998;DHT22;34807;51.456;7.244;2023-04-28T13:11:49;15.00;89.70
48998;DHT22;34807;51.456;7.244;2023-04-28T13:14:15;15.20;89.70
48998;DHT22;34807;51.456;7.244;2023-04-28T13:16:40;15.40;89.10
48998;DHT22;34807;51.456;7.244;2023-04-28T13:19:06;15.50;89.60
48998;DHT22;34807;51.456;7.244;2023-04-28T13:21:38;15.50;88.60
48998;DHT22;34807;51.456;7.244;2023-04-28T13:24:04;15.50;88.90
48998;DHT22;34807;51.456;7.244;2023-04-28T13:26:31;15.60;88.80
48998;DHT22;34807;51.456;7.244;2023-04-28T13:28:57;15.60;88.80
48998;DHT22;34807;51.456;7.244;2023-04-28T13:31:22;15.70;88.60
48998;DHT22;34807;51.456;7.244;2023-04-28T13:33:48;15.80;88.90
48998;DHT22;34807;51.456;7.244;2023-04-28T13:36:14;15.90;88.50
48998;DHT22;34807;51.456;7.244;2023-04-28T13:38:39;16.00;88.70
48998;DHT22;34807;51.456;7.244;2023-04-28T13:41:05;16.10;88.80
48998;DHT22;34807;51.456;7.244;2023-04-28T13:43:31;16.20;87.90
48998;DHT22;34807;51.456;7.244;2023-04-28T13:45:56;16.30;88.10
48998;DHT22;34807;51.456;7.244;2023-04-28T13:48:22;16.30;87.50
48998;DHT22;34807;51.456;7.244;2023-04-28T13:50:48;16.40;88.10
48998;DHT22;34807;51.456;7.244;2023-04-28T13:53:13;16.50;87.80
48998;DHT22;34807;51.456;7.244;2023-04-28T13:55:39;16.50;88.10
48998;DHT22;34807;51.456;7.244;2023-04-28T13:58:05;16.70;87.70
48998;DHT22;34807;51.456;7.244;2023-04-28T14:00:31;16.80;87.10
48998;DHT22;34807;51.456;7.244;2023-04-28T14:02:57;16.90;87.00
48998;DHT22;34807;51.456;7.244;2023-04-28T14:05:22;16.90;87.20
48998;DHT22;34807;51.456;7.244;2023-04-28T14:07:48;16.90;86.80
48998;DHT22;34807;51.456;7.244;2023-04-28T14:10:13;16.90;87.00
48998;DHT22;34807;51.456;7.244;2023-04-28T14:12:39;16.90;87.00
48998;DHT22;34807;51.456;7.244;2023-04-28T14:15:05;16.90;87.60
48998;DHT22;34807;51.456;7.244;2023-04-28T14:17:31;16.80;87.00
48998;DHT22;34807;51.456;7.244;2023-04-28T14:20:01;16.80;87.90
48998;DHT22;34807;51.456;7.244;2023-04-28T14:22:27;16.80;88.50
48998;DHT22;34807;51.456;7.244;2023-04-28T14:24:53;16.70;88.60
48998;DHT22;34807;51.456;7.244;2023-04-28T14:27:19;16.70;89.10
48998;DHT22;34807;51.456;7.244;2023-04-28T14:29:44;16.60;89.20
48998;DHT22;34807;51.456;7.244;2023-04-28T14:32:12;16.60;89.60
48998;DHT22;34807;51.456;7.244;2023-04-28T14:34:38;16.60;89.90
48998;DHT22;34807;51.456;7.244;2023-04-28T14:37:04;16.70;89.50
48998;DHT22;34807;51.456;7.244;2023-04-28T14:39:30;16.80;88.40
48998;DHT22;34807;51.456;7.244;2023-04-28T14:41:55;17.00;88.20
48998;DHT22;34807;51.456;7.244;2023-04-28T14:44:21;17.20;88.10
48998;DHT22;34807;51.456;7.244;2023-04-28T14:46:46;17.20;87.20
48998;DHT22;34807;51.456;7.244;2023-04-28T14:49:13;17.20;87.20
48998;DHT22;34807;51.456;7.244;2023-04-28T14:51:38;17.10;87.40
48998;DHT22;34807;51.456;7.244;2023-04-28T14:54:04;17.10;87.90
48998;DHT22;34807;51.456;7.244;2023-04-28T14:56:29;17.10;88.20
48998;DHT22;34807;51.456;7.244;2023-04-28T14:58:55;17.10;87.70
48998;DHT22;34807;51.456;7.244;2023-04-28T15:01:20;17.10;87.60
48998;DHT22;34807;51.456;7.244;2023-04-28T15:03:46;17.00;87.90
48998;DHT22;34807;51.456;7.244;2023-04-28T15:06:11;17.00;88.20
48998;DHT22;34807;51.456;7.244;2023-04-28T15:08:37;17.00;88.60
48998;DHT22;34807;51.456;7.244;2023-04-28T15:11:04;17.00;88.60
48998;DHT22;34807;51.456;7.244;2023-04-28T15:13:30;17.00;88.80
48998;DHT22;34807;51.456;7.244;2023-04-28T15:15:56;17.00;89.10
48998;DHT22;34807;51.456;7.244;2023-04-28T15:18:22;17.10;88.50
48998;DHT22;34807;51.456;7.244;2023-04-28T15:20:47;17.10;88.50
48998;DHT22;34807;51.456;7.244;2023-04-28T15:23:13;17.10;88.10
48998;DHT22;34807;51.456;7.244;2023-04-28T15:25:39;17.10;88.50
48998;DHT22;34807;51.456;7.244;2023-04-28T15:28:05;17.00;88.80
48998;DHT22;34807;51.456;7.244;2023-04-28T15:30:31;17.00;88.80
48998;DHT22;34807;51.456;7.244;2023-04-28T15:32:57;16.90;88.90
48998;DHT22;34807;51.456;7.244;2023-04-28T15:35:23;16.90;88.90
48998;DHT22;34807;51.456;7.244;2023-04-28T15:37:49;16.90;89.50
48998;DHT22;34807;51.456;7.244;2023-04-28T15:40:16;16.80;89.50
48998;DHT22;34807;51.456;7.244;2023-04-28T15:42:46;16.80;90.00
48998;DHT22;34807;51.456;7.244;2023-04-28T15:45:16;16.80;90.00
48998;DHT22;34807;51.456;7.244;2023-04-28T15:47:43;16.80;90.10
48998;DHT22;34807;51.456;7.244;2023-04-28T15:50:09;16.80;90.20
48998;DHT22;34807;51.456;7.244;2023-04-28T15:52:38;16.70;90.30
48998;DHT22;34807;51.456;7.244;2023-04-28T15:55:05;16.70;90.10
48998;DHT22;34807;51.456;7.244;2023-04-28T15:57:31;16.60;90.20
48998;DHT22;34807;51.456;7.244;2023-04-28T15:59:56;16.60;90.20
48998;DHT22;34807;51.456;7.244;2023-04-28T16:02:22;16.60;90.30
48998;DHT22;34807;51.456;7.244;2023-04-28T16:04:48;16.50;90.40
48998;DHT22;34807;51.456;7.244;2023-04-28T16:07:13;16.50;90.50
48998;DHT22;34807;51.456;7.244;2023-04-28T16:09:39;16.40;90.50
48998;DHT22;34807;51.456;7.244;2023-04-28T16:12:04;16.40;90.70
48998;DHT22;34807;51.456;7.244;2023-04-28T16:14:30;16.40;90.80